Weather

Current Metar report

KALM 170615Z AUTO 25003KT 10SM CLR 13/00 A3012 RMK AO2


Metar history is on Flightaware.

KALM AWOS Info
Phone Number: 575-439-4112
Freq: 127.825 MHz

KALM Weather Links

Soaring Forecasts Links